Terminal Aerodrome Forecast
Issued by NWS Cleveland, OH

Home | Current Version | Previous Version | Text Only | Print | Product List | Glossary Off
Versions: 1 2 3 4 5 6 7 8 9 10 11 12 13 14 15 16 17 18 19 20 21 22 23 24 25

510
FTUS41 KCLE 200933 AAB
TAFERI
TAF AMD
KERI 200933Z 2010/2106 13006KT P6SM OVC150
     FM201330 13010KT 6SM -RA BR OVC040
     FM201500 13010KT 4SM -RA BR OVC025
     FM201800 18008KT 4SM BR OVC007
     FM210000 20006KT P6SM OVC009=

USA.gov is the U.S. government's official web portal to all federal, state and local government web resources and services.